Time;durP1;ratioP1;P1;durP2;ratioP2;P2;SDS_P1;SDS_P2;PMS_P1;PMS_P2;Temp;Humidity;BMP_temperature;BMP_pressure;BME280_temperature;BME280_humidity;BME280_pressure;Samples;Min_cycle;Max_cycle;Signal;HPM_P1;HPM_P2
2021/05/10 00:02:13;;;;;;;30.27;18.15;;;333.30;2329.60;;;;;;5073679;28;20057;-85
2021/05/10 00:04:59;;;;;;;27.90;16.48;;;333.40;2329.60;;;;;;5072405;28;20039;-87
2021/05/10 00:07:59;;;;;;;32.15;16.70;;;333.00;2329.60;;;;;;5079446;28;20025;-86
2021/05/10 00:10:31;;;;;;;31.45;16.50;;;333.20;2329.60;;;;;;5062704;28;20059;-87
2021/05/10 00:13:32;;;;;;;30.63;16.80;;;333.10;2329.60;;;;;;5076334;28;20044;-86
2021/05/10 00:16:19;;;;;;;25.35;16.40;;;333.10;2329.60;;;;;;5077203;28;20032;-86
2021/05/10 00:18:50;;;;;;;28.13;15.52;;;333.10;2329.60;;;;;;5074985;28;20131;-87
2021/05/10 00:21:24;;;;;;;27.48;15.93;;;332.90;2329.60;;;;;;5075275;28;20074;-85
2021/05/10 00:24:23;;;;;;;;;;;308.10;2304.00;;;;;;5034528;28;20046;-85
2021/05/10 00:26:50;;;;;;;30.30;14.88;;;332.90;2329.60;;;;;;5050266;28;19911;-86
2021/05/10 00:30:13;;;;;;;28.50;16.27;;;308.10;2304.00;;;;;;5044166;28;20044;-86
2021/05/10 00:32:48;;;;;;;27.02;15.35;;;308.10;2304.00;;;;;;5056784;28;20091;-87
2021/05/10 00:35:22;;;;;;;26.38;15.00;;;308.10;2304.00;;;;;;5055885;28;20367;-87
2021/05/10 00:38:11;;;;;;;27.40;16.40;;;332.90;2329.60;;;;;;5055311;28;20032;-85
2021/05/10 00:40:52;;;;;;;35.58;16.58;;;332.90;2329.60;;;;;;5056927;28;20028;-89
2021/05/10 00:44:06;;;;;;;27.33;15.38;;;332.80;2329.60;;;;;;5056183;28;20088;-85
2021/05/10 00:47:15;;;;;;;35.33;16.75;;;308.00;2304.00;;;;;;5055897;28;20033;-86
2021/05/10 00:50:16;;;;;;;28.33;15.30;;;308.10;2304.00;;;;;;5049306;28;20025;-85
2021/05/10 00:53:19;;;;;;;28.27;16.02;;;332.80;2329.60;;;;;;5055771;28;20025;-86
2021/05/10 00:55:54;;;;;;;25.52;14.10;;;308.00;2304.00;;;;;;5047181;28;20040;-85
2021/05/10 00:58:50;;;;;;;30.92;14.25;;;308.00;2304.00;;;;;;5055015;28;20037;-86
2021/05/10 01:02:16;;;;;;;25.10;13.70;;;307.70;2304.00;;;;;;5032564;28;20077;-86
2021/05/10 01:08:39;;;;;;;23.67;14.27;;;307.70;2304.00;;;;;;5018363;28;20040;-87
2021/05/10 01:43:02;;;;;;;21.95;14.65;;;282.40;2278.40;;;;;;4823923;29;20122;-83
2021/05/10 01:45:54;;;;;;;22.23;13.77;;;282.30;2278.40;;;;;;4812933;29;20033;-86
2021/05/10 01:48:22;;;;;;;22.48;12.77;;;282.50;2278.40;;;;;;4832631;29;20034;-84
2021/05/10 01:51:38;;;;;;;24.35;13.50;;;282.20;2278.40;;;;;;4866488;29;20037;-86
2021/05/10 01:54:39;;;;;;;22.45;13.40;;;282.40;2278.40;;;;;;4951549;28;20097;-88
2021/05/10 01:57:35;;;;;;;23.38;13.38;;;282.40;2278.40;;;;;;4972254;28;20039;-83
2021/05/10 02:00:43;;;;;;;22.50;13.95;;;282.50;2278.40;;;;;;4955810;28;20035;-86
2021/05/10 02:03:38;;;;;;;24.60;14.57;;;282.50;2278.40;;;;;;5046539;28;20036;-83
2021/05/10 02:06:05;;;;;;;28.85;14.45;;;282.10;2278.40;;;;;;5036421;28;20445;-85
2021/05/10 02:11:52;;;;;;;26.35;13.63;;;282.00;2278.40;;;;;;5075318;28;20492;-87
2021/05/10 02:14:35;;;;;;;29.45;14.85;;;282.00;2278.40;;;;;;5039836;28;20036;-86
2021/05/10 02:18:05;;;;;;;22.08;13.82;;;282.00;2278.40;;;;;;5073854;28;20029;-85
2021/05/10 02:21:22;;;;;;;20.17;11.70;;;282.20;2278.40;;;;;;5040114;28;20123;-84
2021/05/10 02:45:01;;;;;;;19.13;10.50;;;281.80;2278.40;;;;;;5012830;28;20057;-86
2021/05/10 02:48:05;;;;;;;23.20;10.27;;;281.60;2278.40;;;;;;5002616;28;20046;-86
2021/05/10 02:50:55;;;;;;;15.45;10.25;;;281.80;2278.40;;;;;;4973581;28;20426;-87
2021/05/10 03:01:05;;;;;;;19.30;10.70;;;256.90;2252.80;;;;;;4954340;29;20037;-86
2021/05/10 03:11:32;;;;;;;19.88;9.65;;;256.70;2252.80;;;;;;4954770;29;20082;-87
2021/05/10 03:18:24;;;;;;;18.83;9.60;;;256.80;2252.80;;;;;;4953682;29;20090;-87
2021/05/10 03:25:35;;;;;;;16.80;9.90;;;256.40;2252.80;;;;;;4980544;28;20044;-89
2021/05/10 03:32:41;;;;;;;16.67;9.70;;;256.50;2252.80;;;;;;4878539;29;20552;-86
2021/05/10 03:39:36;;;;;;;17.25;9.32;;;256.70;2252.80;;;;;;4787052;29;20104;-86
2021/05/10 03:43:11;;;;;;;21.15;10.48;;;256.50;2252.80;;;;;;4792195;29;20039;-85
2021/05/10 03:54:09;;;;;;;22.25;9.30;;;256.80;2252.80;;;;;;4886622;29;20048;-87
2021/05/10 04:00:26;;;;;;;28.98;10.00;;;281.70;2278.40;;;;;;4878189;29;20056;-84
2021/05/10 04:03:56;;;;;;;20.80;10.75;;;281.60;2278.40;;;;;;4877259;29;20037;-85
2021/05/10 04:15:00;;;;;;;20.73;10.48;;;256.20;2252.80;;;;;;4786711;30;20437;-86
2021/05/10 04:18:43;;;;;;;18.13;10.18;;;256.60;2252.80;;;;;;4750836;30;20086;-85
2021/05/10 04:21:47;;;;;;;17.75;10.00;;;256.70;2252.80;;;;;;4691128;30;20039;-87
2021/05/10 04:24:55;;;;;;;22.05;10.35;;;281.60;2278.40;;;;;;4728642;29;20041;-85
2021/05/10 04:28:18;;;;;;;21.10;10.35;;;256.80;2252.80;;;;;;4886973;29;20060;-85
2021/05/10 04:32:04;;;;;;;23.33;10.20;;;256.90;2252.80;;;;;;4879700;29;20040;-87
2021/05/10 04:35:41;;;;;;;22.33;10.52;;;256.80;2252.80;;;;;;4736112;30;20037;-87
2021/05/10 04:38:48;;;;;;;20.50;11.10;;;281.70;2278.40;;;;;;4807353;29;20043;-86
2021/05/10 04:45:43;;;;;;;23.35;10.23;;;256.90;2252.80;;;;;;4808228;29;20091;-87
2021/05/10 04:56:22;;;;;;;17.50;11.60;;;256.80;2252.80;;;;;;4866168;29;20616;-84
2021/05/10 05:02:42;;;;;;;26.52;10.52;;;281.90;2278.40;;;;;;4867748;29;20040;-86
2021/05/10 05:06:14;;;;;;;34.90;13.52;;;282.20;2278.40;;;;;;4863836;29;20115;-82
2021/05/10 05:27:22;;;;;;;18.10;9.88;;;307.40;2304.00;;;;;;4786568;30;20087;-88
2021/05/10 05:30:43;;;;;;;;;;;;;;;;;;;;;
2021/05/10 05:36:47;;;;;;;23.27;10.57;;;308.00;2304.00;;;;;;4896200;29;20048;-86
2021/05/10 05:39:46;;;;;;;19.55;10.52;;;332.80;2329.60;;;;;;4898375;29;20119;-85
2021/05/10 05:46:37;;;;;;;25.70;10.60;;;333.00;2329.60;;;;;;4920494;29;20039;-85
2021/05/10 05:49:09;;;;;;;20.38;10.73;;;333.20;2329.60;;;;;;4927463;29;20024;-85
2021/05/10 05:51:38;;;;;;;24.80;10.85;;;333.20;2329.60;;;;;;4949946;28;20027;-84
2021/05/10 05:55:14;;;;;;;23.40;12.15;;;333.40;2329.60;;;;;;4993041;28;20043;-84
2021/05/10 05:58:10;;;;;;;16.55;9.95;;;333.70;2329.60;;;;;;4988687;28;20062;-83
2021/05/10 06:00:41;;;;;;;16.48;10.13;;;358.50;2329.60;;;;;;4972270;28;20031;-84
2021/05/10 06:03:07;;;;;;;22.45;11.73;;;358.60;2329.60;;;;;;4986516;28;20126;-85
2021/05/10 06:05:34;;;;;;;27.00;11.30;;;358.70;2329.60;;;;;;4969029;28;20057;-85
2021/05/10 06:08:07;;;;;;;27.30;11.05;;;358.70;2329.60;;;;;;4978021;28;20191;-87
2021/05/10 06:10:33;;;;;;;23.38;10.93;;;358.90;2329.60;;;;;;4974422;28;20030;-84
2021/05/10 06:12:59;;;;;;;21.27;10.95;;;358.90;2329.60;;;;;;5016630;28;20049;-87
2021/05/10 06:15:26;;;;;;;21.85;10.27;;;359.10;2329.60;;;;;;5017485;28;20047;-86
2021/05/10 06:17:52;;;;;;;20.27;10.60;;;359.30;2329.60;;;;;;5017362;28;20493;-85
2021/05/10 06:20:22;;;;;;;16.42;9.38;;;384.00;2329.60;;;;;;5017099;28;20499;-86
2021/05/10 06:22:51;;;;;;;21.27;8.60;;;384.20;2329.60;;;;;;5017555;28;20382;-85
2021/05/10 06:25:17;;;;;;;20.33;10.52;;;384.40;2329.60;;;;;;5017508;28;20028;-88
2021/05/10 06:27:43;;;;;;;19.15;9.30;;;384.50;2329.60;;;;;;5017655;28;20467;-85
2021/05/10 06:30:10;;;;;;;14.23;8.70;;;384.60;2329.60;;;;;;5034231;28;20056;-85
2021/05/10 06:32:37;;;;;;;17.65;8.98;;;384.80;2329.60;;;;;;5017014;28;20033;-87
2021/05/10 06:35:04;;;;;;;15.25;9.18;;;409.60;2355.20;;;;;;5017533;28;20033;-82
2021/05/10 06:37:29;;;;;;;10.90;7.40;;;409.70;2355.20;;;;;;5017603;28;20072;-83
2021/05/10 06:39:59;;;;;;;10.05;6.57;;;410.00;2355.20;;;;;;5016963;28;20026;-85
2021/05/10 06:42:25;;;;;;;12.38;6.53;;;410.20;2355.20;;;;;;5019121;28;20056;-85
2021/05/10 06:44:51;;;;;;;9.50;5.82;;;410.20;2355.20;;;;;;5017463;28;20041;-86
2021/05/10 06:47:18;;;;;;;21.33;9.38;;;410.40;2355.20;;;;;;5034778;28;20026;-82
2021/05/10 06:49:44;;;;;;;14.70;6.43;;;435.30;2355.20;;;;;;5038848;28;20029;-85
2021/05/10 06:52:10;;;;;;;12.18;5.90;;;435.60;2355.20;;;;;;5037861;28;20462;-85
2021/05/10 06:54:36;;;;;;;8.75;5.93;;;435.70;2355.20;;;;;;5026601;28;20048;-84
2021/05/10 06:57:02;;;;;;;8.50;5.68;;;435.90;2355.20;;;;;;5017646;28;20093;-84
2021/05/10 06:59:29;;;;;;;12.18;7.63;;;436.10;2355.20;;;;;;5016697;28;20049;-83
2021/05/10 07:01:54;;;;;;;11.18;7.20;;;435.80;2355.20;;;;;;5016930;28;20036;-84
2021/05/10 07:04:20;;;;;;;15.05;8.45;;;461.00;2380.80;;;;;;5017838;28;20026;-84
2021/05/10 07:06:46;;;;;;;15.25;6.20;;;461.20;2380.80;;;;;;5016816;28;20112;-86
2021/05/10 07:09:12;;;;;;;11.68;6.35;;;461.30;2380.80;;;;;;5016871;28;20032;-84
2021/05/10 07:11:38;;;;;;;11.70;7.07;;;461.50;2380.80;;;;;;5016161;28;20058;-85
2021/05/10 07:14:05;;;;;;;13.95;9.48;;;461.60;2380.80;;;;;;5034660;28;20088;-85
2021/05/10 07:16:31;;;;;;;12.10;6.80;;;486.60;2380.80;;;;;;5017026;28;20026;-83
2021/05/10 07:18:57;;;;;;;12.30;7.82;;;486.50;2380.80;;;;;;5016692;28;20136;-83
2021/05/10 07:21:27;;;;;;;14.63;7.68;;;486.70;2355.20;;;;;;5018444;28;20459;-88
2021/05/10 07:23:54;;;;;;;8.85;5.78;;;486.70;2329.60;;;;;;5020869;28;20040;-88
2021/05/10 07:26:21;;;;;;;9.32;5.70;;;486.80;2304.00;;;;;;5037931;28;20028;-87
2021/05/10 07:28:47;;;;;;;8.88;6.03;;;486.90;2252.80;;;;;;5037210;28;20048;-85
2021/05/10 07:31:13;;;;;;;9.63;5.80;;;487.10;2278.40;;;;;;5036737;28;20475;-81
2021/05/10 07:33:38;;;;;;;8.98;6.00;;;487.30;2201.60;;;;;;5036191;28;20025;-80
2021/05/10 07:36:04;;;;;;;9.18;5.38;;;512.00;2201.60;;;;;;5035357;28;20021;-79
2021/05/10 07:38:31;;;;;;;11.18;6.20;;;512.10;2150.40;;;;;;5036129;28;20029;-85
2021/05/10 07:40:56;;;;;;;7.72;5.15;;;512.30;2124.80;;;;;;5036379;28;20025;-82
2021/05/10 07:43:22;;;;;;;18.17;7.00;;;512.40;2124.80;;;;;;5036671;28;20361;-83
2021/05/10 07:45:48;;;;;;;8.15;5.82;;;512.50;2099.20;;;;;;5037830;28;20061;-84
2021/05/10 07:48:14;;;;;;;10.95;6.10;;;512.70;2073.60;;;;;;5037129;28;20075;-86
2021/05/10 07:50:40;;;;;;;9.93;5.63;;;512.80;2073.60;;;;;;5036423;28;20104;-85
2021/05/10 07:53:06;;;;;;;8.63;5.35;;;512.90;2073.60;;;;;;5037072;28;20052;-85
2021/05/10 07:55:33;;;;;;;8.90;5.75;;;537.60;2073.60;;;;;;5036828;28;20025;-81
2021/05/10 07:58:00;;;;;;;10.45;6.15;;;537.80;2073.60;;;;;;5039287;28;20048;-84
2021/05/10 08:02:58;;;;;;;8.18;4.32;;;538.00;1996.80;;;;;;5060775;28;20052;-85
2021/05/10 08:05:23;;;;;;;10.15;5.68;;;538.20;1971.20;;;;;;5036281;28;20025;-84
2021/05/10 08:07:50;;;;;;;14.32;5.25;;;538.30;1971.20;;;;;;5036127;28;20154;-85
2021/05/10 08:10:16;;;;;;;8.90;6.10;;;538.50;1971.20;;;;;;5035720;28;20047;-84
2021/05/10 08:12:42;;;;;;;10.00;6.40;;;563.20;1945.60;;;;;;5036794;28;20029;-82
2021/05/10 08:15:09;;;;;;;8.95;5.65;;;563.30;1945.60;;;;;;5035894;28;20375;-83
2021/05/10 08:17:35;;;;;;;10.13;6.43;;;563.50;1920.00;;;;;;5036086;28;20186;-79
2021/05/10 08:20:04;;;;;;;10.27;6.38;;;563.60;1894.40;;;;;;5050165;28;20082;-79
2021/05/10 08:22:30;;;;;;;11.02;6.93;;;563.70;1894.40;;;;;;5056188;28;20036;-80
2021/05/10 08:24:56;;;;;;;9.73;6.05;;;563.80;1894.40;;;;;;5057606;28;20033;-79
2021/05/10 08:27:22;;;;;;;9.35;5.82;;;563.90;1868.80;;;;;;5058959;28;20029;-79
2021/05/10 08:29:47;;;;;;;13.20;6.13;;;564.10;1843.20;;;;;;5059521;28;20032;-80
2021/05/10 08:32:13;;;;;;;15.98;6.85;;;564.10;1843.20;;;;;;5058861;28;20060;-78
2021/05/10 08:34:39;;;;;;;10.48;5.82;;;588.90;1843.20;;;;;;5060959;28;20031;-77
2021/05/10 08:37:05;;;;;;;18.38;5.72;;;589.10;1817.60;;;;;;5079254;28;20032;-79
2021/05/10 08:39:31;;;;;;;7.93;4.90;;;589.20;1766.40;;;;;;5071009;28;20047;-82
2021/05/10 08:41:57;;;;;;;15.05;8.38;;;589.20;1766.40;;;;;;5065631;28;20504;-78
2021/05/10 08:44:23;;;;;;;11.27;6.43;;;589.30;1766.40;;;;;;5058554;28;20060;-80
2021/05/10 08:46:49;;;;;;;9.40;6.50;;;589.60;1740.80;;;;;;5056924;28;20067;-80
2021/05/10 08:49:19;;;;;;;9.93;6.80;;;589.70;1715.20;;;;;;5058016;28;20039;-81
2021/05/10 08:51:45;;;;;;;10.10;7.22;;;589.70;1715.20;;;;;;5089972;28;20025;-82
2021/05/10 08:54:19;;;;;;;11.00;6.63;;;614.50;1715.20;;;;;;5072820;28;20034;-79
2021/05/10 08:56:45;;;;;;;8.57;6.13;;;614.50;1689.60;;;;;;5072508;28;20073;-78
2021/05/10 08:59:11;;;;;;;10.57;5.28;;;614.60;1664.00;;;;;;5078003;28;20108;-79
2021/05/10 09:02:00;;;;;;;7.95;5.65;;;614.50;1664.00;;;;;;5073152;28;20442;-78
2021/05/10 09:04:30;;;;;;;9.10;6.47;;;614.40;1664.00;;;;;;5077987;28;20496;-79
2021/05/10 09:07:19;;;;;;;13.27;10.25;;;614.60;1664.00;;;;;;5070423;28;20028;-80
2021/05/10 09:09:59;;;;;;;13.05;9.73;;;614.70;1664.00;;;;;;5074820;28;20028;-78
2021/05/10 09:12:49;;;;;;;13.75;9.27;;;614.90;1638.40;;;;;;5080414;28;20028;-76
2021/05/10 09:15:20;;;;;;;10.85;7.43;;;615.10;1612.80;;;;;;5062979;28;20028;-81
2021/05/10 09:17:54;;;;;;;10.98;8.30;;;614.60;1664.00;;;;;;5065012;28;20473;-76
2021/05/10 09:20:25;;;;;;;13.75;8.45;;;615.00;1638.40;;;;;;5073876;28;20049;-75
2021/05/10 09:22:59;;;;;;;9.73;7.95;;;615.20;1612.80;;;;;;5056721;28;20043;-76
2021/05/10 09:25:34;;;;;;;15.38;9.60;;;640.10;1587.20;;;;;;5057950;28;20538;-78
2021/05/10 09:28:11;;;;;;;10.77;6.03;;;640.20;1587.20;;;;;;5075349;28;20020;-76
2021/05/10 09:30:39;;;;;;;18.15;6.93;;;640.10;1561.60;;;;;;5058059;28;20382;-81
2021/05/10 09:33:05;;;;;;;13.13;8.80;;;640.10;1536.00;;;;;;5058180;28;20068;-80
2021/05/10 09:35:32;;;;;;;19.65;11.05;;;640.40;1561.60;;;;;;5057024;28;20576;-80
2021/05/10 09:37:59;;;;;;;12.98;5.85;;;640.50;1561.60;;;;;;5057802;28;20169;-77
2021/05/10 09:40:28;;;;;;;7.70;5.18;;;640.80;1536.00;;;;;;5057821;28;20020;-81
2021/05/10 09:42:56;;;;;;;18.13;11.73;;;665.60;1536.00;;;;;;5057482;28;20032;-80
2021/05/10 09:45:34;;;;;;;18.90;13.38;;;665.80;1510.40;;;;;;5075345;28;20055;-80
2021/05/10 09:48:09;;;;;;;8.73;5.75;;;666.00;1510.40;;;;;;5057523;28;20032;-81
2021/05/10 09:50:41;;;;;;;10.93;6.93;;;665.80;1484.80;;;;;;5057541;28;20469;-78
2021/05/10 09:53:11;;;;;;;14.55;9.15;;;665.70;1510.40;;;;;;5075852;28;20078;-79
2021/05/10 09:56:03;;;;;;;7.78;5.43;;;666.10;1484.80;;;;;;5057073;28;20025;-78
2021/05/10 09:58:43;;;;;;;8.20;4.77;;;666.20;1459.20;;;;;;5057374;28;20025;-78
2021/05/10 10:01:10;;;;;;;9.52;4.53;;;666.00;1484.80;;;;;;5057374;28;20025;-79
2021/05/10 10:03:45;;;;;;;10.00;5.95;;;666.40;1459.20;;;;;;5057193;28;20035;-83
2021/05/10 10:06:16;;;;;;;15.07;11.32;;;691.20;1459.20;;;;;;5057442;28;20035;-82
2021/05/10 10:08:47;;;;;;;9.02;5.93;;;691.30;1433.60;;;;;;5075050;28;20082;-79
2021/05/10 10:11:17;;;;;;;6.78;4.10;;;691.40;1408.00;;;;;;5057193;28;20127;-80
2021/05/10 10:13:44;;;;;;;7.45;4.18;;;691.30;1382.40;;;;;;5057552;28;20491;-80
2021/05/10 10:16:10;;;;;;;6.53;4.40;;;691.50;1408.00;;;;;;5056940;28;20029;-80
2021/05/10 10:18:38;;;;;;;9.52;4.82;;;691.60;1408.00;;;;;;5075104;28;20020;-80
2021/05/10 10:21:05;;;;;;;10.45;4.88;;;691.70;1408.00;;;;;;5057247;28;20441;-80
2021/05/10 10:23:30;;;;;;;8.93;5.60;;;692.00;1382.40;;;;;;5057053;28;20035;-79
2021/05/10 10:25:58;;;;;;;8.40;5.10;;;692.10;1382.40;;;;;;5074813;28;20373;-80
2021/05/10 10:28:26;;;;;;;9.05;4.40;;;691.60;1356.80;;;;;;5056610;28;20035;-78
2021/05/10 10:31:01;;;;;;;13.05;5.22;;;691.60;1382.40;;;;;;5056519;28;20412;-78
2021/05/10 10:34:06;;;;;;;6.18;4.05;;;692.10;1382.40;;;;;;5075015;28;20406;-79
2021/05/10 10:36:36;;;;;;;10.23;5.40;;;716.80;1408.00;;;;;;4976476;28;20165;-78
2021/05/10 10:39:23;;;;;;;9.00;4.28;;;717.10;1382.40;;;;;;5042427;28;20040;-77
2021/05/10 10:42:05;;;;;;;7.10;4.15;;;717.50;1382.40;;;;;;5056559;28;20028;-77
2021/05/10 10:44:42;;;;;;;7.07;3.55;;;717.50;1331.20;;;;;;5074115;28;20028;-79
2021/05/10 10:47:11;;;;;;;8.88;4.10;;;717.70;1331.20;;;;;;5074526;28;20024;-78
2021/05/10 10:49:37;;;;;;;12.15;4.63;;;717.70;1331.20;;;;;;5057199;28;20024;-77
2021/05/10 10:52:15;;;;;;;9.05;4.25;;;742.50;1331.20;;;;;;5058014;28;20027;-78
2021/05/10 10:54:41;;;;;;;7.63;4.38;;;717.50;1305.60;;;;;;5062199;28;20029;-78
2021/05/10 10:57:07;;;;;;;7.95;4.25;;;717.70;1331.20;;;;;;5072057;28;20024;-79
2021/05/10 10:59:38;;;;;;;12.27;6.35;;;717.40;1305.60;;;;;;5094096;28;20035;-80
2021/05/10 11:02:17;;;;;;;16.10;7.70;;;717.50;1331.20;;;;;;5075183;28;20468;-79
2021/05/10 11:04:43;;;;;;;12.25;9.55;;;742.40;1331.20;;;;;;5075831;28;20067;-78
2021/05/10 11:07:10;;;;;;;17.35;7.03;;;742.70;1305.60;;;;;;5076214;28;20028;-78
2021/05/10 11:09:52;;;;;;;13.02;9.82;;;742.70;1331.20;;;;;;5093872;28;20108;-79
2021/05/10 11:12:49;;;;;;;9.10;6.22;;;742.90;1331.20;;;;;;5076622;28;20024;-79
2021/05/10 11:15:36;;;;;;;8.10;6.10;;;743.00;1280.00;;;;;;5062174;28;20031;-78
2021/05/10 11:18:04;;;;;;;18.80;13.00;;;743.00;1280.00;;;;;;5073938;28;20024;-78
2021/05/10 11:20:40;;;;;;;15.20;7.80;;;743.30;1280.00;;;;;;5053690;28;20045;-78
2021/05/10 11:23:25;;;;;;;9.52;6.22;;;743.30;1254.40;;;;;;5054277;28;20089;-78
2021/05/10 11:25:53;;;;;;;9.77;7.60;;;768.10;1254.40;;;;;;5073732;28;20501;-77
2021/05/10 11:28:26;;;;;;;9.13;6.00;;;768.20;1228.80;;;;;;5055274;28;20499;-77
2021/05/10 11:31:13;;;;;;;8.90;5.57;;;768.20;1280.00;;;;;;5056294;28;20025;-76
2021/05/10 11:33:54;;;;;;;8.20;6.07;;;768.20;1228.80;;;;;;5070265;28;20094;-77
2021/05/10 11:36:34;;;;;;;13.85;4.72;;;768.50;1203.20;;;;;;5074524;28;20032;-78
2021/05/10 11:39:05;;;;;;;8.57;5.47;;;768.60;1228.80;;;;;;5076368;28;20050;-77
2021/05/10 11:41:38;;;;;;;11.43;5.85;;;768.50;1203.20;;;;;;5064639;28;20032;-79
2021/05/10 11:44:18;;;;;;;10.43;5.10;;;768.50;1228.80;;;;;;5055848;28;20434;-79
2021/05/10 11:46:49;;;;;;;12.48;9.75;;;768.70;1203.20;;;;;;5054471;28;20072;-80
2021/05/10 11:49:42;;;;;;;10.95;6.25;;;768.90;1177.60;;;;;;5056337;28;20032;-80
2021/05/10 11:52:14;;;;;;;12.05;8.10;;;793.70;1228.80;;;;;;5059944;28;20077;-83
2021/05/10 11:54:53;;;;;;;10.57;7.07;;;793.80;1203.20;;;;;;5073826;28;20036;-78
2021/05/10 11:57:25;;;;;;;19.00;14.50;;;794.10;1177.60;;;;;;5066934;28;20086;-78
2021/05/10 11:59:54;;;;;;;;;;;794.20;1177.60;;;;;;5059479;28;20028;-79
2021/05/10 12:02:28;;;;;;;6.43;4.15;;;794.30;1177.60;;;;;;5058263;28;19927;-78
2021/05/10 12:04:54;;;;;;;8.55;4.07;;;794.40;1126.40;;;;;;5059169;28;20032;-78
2021/05/10 12:07:23;;;;;;;10.63;4.20;;;794.50;1100.80;;;;;;5059591;28;20484;-78
2021/05/10 12:09:56;;;;;;;9.23;4.45;;;794.50;1126.40;;;;;;5059709;28;20448;-78
2021/05/10 12:12:24;;;;;;;12.30;6.35;;;819.20;1100.80;;;;;;5080643;28;20124;-77
2021/05/10 12:14:53;;;;;;;10.60;7.75;;;819.30;1100.80;;;;;;5061068;28;20035;-79
2021/05/10 12:17:23;;;;;;;10.75;5.90;;;819.20;1075.20;;;;;;5075924;28;20390;-79
2021/05/10 12:19:58;;;;;;;11.95;4.80;;;819.30;1100.80;;;;;;5076747;28;20072;-78
2021/05/10 12:22:42;;;;;;;5.68;3.60;;;819.30;1075.20;;;;;;5058807;28;20033;-77
2021/05/10 12:25:12;;;;;;;9.52;4.03;;;819.60;1049.60;;;;;;5078749;28;20063;-77
2021/05/10 12:27:42;;;;;;;9.50;2.97;;;819.60;1049.60;;;;;;5079009;28;20032;-77
2021/05/10 12:30:17;;;;;;;7.78;3.35;;;819.30;1049.60;;;;;;5076079;28;20025;-77
2021/05/10 12:32:46;;;;;;;8.10;3.22;;;819.20;1049.60;;;;;;5058258;28;20032;-77
2021/05/10 12:35:13;;;;;;;9.00;3.40;;;819.40;1024.00;;;;;;5059664;28;20025;-77
2021/05/10 12:37:44;;;;;;;7.25;3.45;;;819.60;1024.00;;;;;;5058943;28;20120;-78
2021/05/10 12:40:12;;;;;;;6.00;3.67;;;819.70;1024.00;;;;;;5058513;28;20032;-77
2021/05/10 12:42:39;;;;;;;7.10;3.38;;;819.80;1024.00;;;;;;5076919;28;20119;-77
2021/05/10 12:45:10;;;;;;;7.32;5.20;;;819.70;1024.00;;;;;;5059437;28;20461;-78
2021/05/10 12:47:58;;;;;;;23.13;20.70;;;819.80;998.40;;;;;;5076318;28;20025;-79
2021/05/10 12:50:52;;;;;;;10.68;7.63;;;819.30;998.40;;;;;;5059065;28;20032;-77
2021/05/10 12:53:46;;;;;;;8.50;4.00;;;819.80;1049.60;;;;;;5055385;28;20047;-78
2021/05/10 12:56:14;;;;;;;6.22;3.70;;;819.80;1024.00;;;;;;5058644;28;20028;-77
2021/05/10 12:58:42;;;;;;;8.98;3.58;;;819.80;998.40;;;;;;5058653;28;20142;-79
2021/05/10 13:01:21;;;;;;;9.35;4.47;;;819.80;1024.00;;;;;;5057800;28;20088;-78
2021/05/10 13:04:09;;;;;;;12.20;3.60;;;819.80;998.40;;;;;;5069458;28;20036;-78
2021/05/10 13:06:39;;;;;;;8.35;3.22;;;820.00;972.80;;;;;;5069687;28;20020;-78
2021/05/10 13:09:23;;;;;;;6.72;4.38;;;820.10;998.40;;;;;;5069692;28;20052;-79
2021/05/10 13:11:54;;;;;;;8.25;3.67;;;820.10;972.80;;;;;;5076873;28;20042;-79
2021/05/10 13:33:44;;;;;;;7.88;4.88;;;844.80;972.80;;;;;;5074775;28;20025;-80
2021/05/10 13:36:30;;;;;;;13.02;8.45;;;819.80;921.60;;;;;;5073100;28;20017;-78
2021/05/10 13:38:57;;;;;;;9.52;5.28;;;819.90;947.20;;;;;;5058447;28;20377;-78
2021/05/10 13:41:28;;;;;;;12.63;6.63;;;820.10;947.20;;;;;;5057707;28;20028;-78
2021/05/10 13:44:13;;;;;;;5.67;3.80;;;820.10;947.20;;;;;;5054767;28;20086;-80
2021/05/10 13:46:39;;;;;;;10.32;6.32;;;820.10;947.20;;;;;;5076203;28;20016;-79
2021/05/10 13:49:06;;;;;;;13.57;8.88;;;844.90;972.80;;;;;;5093885;28;20403;-78
2021/05/10 13:51:34;;;;;;;14.85;9.52;;;844.90;972.80;;;;;;5076337;28;20032;-79
2021/05/10 13:54:00;;;;;;;9.88;7.03;;;845.00;972.80;;;;;;5076614;28;20028;-79
2021/05/10 13:56:27;;;;;;;8.20;5.43;;;845.20;947.20;;;;;;5076358;28;20031;-80
2021/05/10 13:58:53;;;;;;;9.32;5.15;;;845.40;947.20;;;;;;5089757;28;20484;-80
2021/05/10 14:01:19;;;;;;;7.65;5.13;;;845.00;947.20;;;;;;5072152;28;20383;-80
2021/05/10 14:03:45;;;;;;;8.40;5.25;;;844.90;947.20;;;;;;5076288;28;20434;-80
2021/05/10 14:06:11;;;;;;;10.48;6.43;;;844.90;947.20;;;;;;5075570;28;20085;-79
2021/05/10 14:08:38;;;;;;;10.18;5.43;;;844.90;947.20;;;;;;5076266;28;20028;-79
2021/05/10 14:11:07;;;;;;;9.07;5.85;;;845.00;921.60;;;;;;5075504;28;20063;-79
2021/05/10 14:13:33;;;;;;;11.32;8.60;;;845.00;947.20;;;;;;5093702;28;20396;-79
2021/05/10 14:15:59;;;;;;;10.23;5.28;;;845.00;921.60;;;;;;5076943;28;20035;-81
2021/05/10 14:18:30;;;;;;;12.43;6.72;;;845.00;947.20;;;;;;5072596;28;20017;-81
2021/05/10 14:23:41;;;;;;;10.43;4.68;;;844.90;896.00;;;;;;5074252;28;20047;-81
2021/05/10 14:26:07;;;;;;;7.53;4.22;;;845.00;921.60;;;;;;5060308;28;20033;-81
2021/05/10 14:28:37;;;;;;;8.98;4.80;;;844.80;896.00;;;;;;5075541;28;20414;-79
2021/05/10 14:31:03;;;;;;;9.90;4.43;;;844.90;896.00;;;;;;5056995;28;20028;-79
2021/05/10 14:33:31;;;;;;;9.10;3.70;;;820.00;896.00;;;;;;5057305;28;20036;-80
2021/05/10 14:35:57;;;;;;;10.15;3.90;;;844.80;947.20;;;;;;5061450;28;20029;-80
2021/05/10 14:38:27;;;;;;;7.20;3.63;;;844.90;947.20;;;;;;5075852;28;20028;-80
2021/05/10 14:40:53;;;;;;;5.43;2.78;;;844.90;947.20;;;;;;5060582;28;20039;-79
2021/05/10 14:43:19;;;;;;;10.68;3.60;;;844.90;947.20;;;;;;5074682;28;20034;-80
2021/05/10 14:45:45;;;;;;;6.65;3.70;;;844.90;947.20;;;;;;5056309;28;20427;-80
2021/05/10 14:48:12;;;;;;;5.45;3.33;;;845.00;947.20;;;;;;5056445;28;20116;-80
2021/05/10 14:50:38;;;;;;;12.25;5.32;;;844.90;947.20;;;;;;5056289;28;20051;-80
2021/05/10 14:53:04;;;;;;;6.15;3.83;;;844.80;947.20;;;;;;5056009;28;20461;-79
2021/05/10 14:55:29;;;;;;;10.00;3.63;;;819.90;947.20;;;;;;5073840;28;20370;-79
2021/05/10 14:57:55;;;;;;;8.13;3.80;;;820.00;947.20;;;;;;5055702;28;20082;-79
2021/05/10 15:00:21;;;;;;;7.90;3.70;;;820.10;947.20;;;;;;5056278;28;20046;-80
2021/05/10 15:02:47;;;;;;;8.10;5.63;;;820.10;947.20;;;;;;5074115;28;20024;-80
2021/05/10 15:05:13;;;;;;;8.05;4.03;;;820.10;947.20;;;;;;5057083;28;20029;-81
2021/05/10 15:07:39;;;;;;;10.45;6.97;;;820.00;921.60;;;;;;5059752;28;20388;-80
2021/05/10 15:10:05;;;;;;;12.70;5.38;;;819.90;947.20;;;;;;5083446;28;20103;-79
2021/05/10 15:12:31;;;;;;;8.82;5.72;;;819.50;947.20;;;;;;5072937;28;20029;-82
2021/05/10 15:14:57;;;;;;;10.90;4.28;;;819.60;972.80;;;;;;5059639;28;20107;-80
2021/05/10 15:17:23;;;;;;;8.55;5.40;;;819.60;947.20;;;;;;5073003;28;20452;-80
2021/05/10 15:19:49;;;;;;;13.75;8.38;;;819.60;972.80;;;;;;5055404;28;20135;-81
2021/05/10 15:22:15;;;;;;;10.23;4.57;;;819.60;972.80;;;;;;5055263;28;20027;-79
2021/05/10 15:24:41;;;;;;;12.10;4.88;;;819.50;947.20;;;;;;5066017;28;20401;-79
2021/05/10 15:27:07;;;;;;;8.23;4.63;;;819.40;947.20;;;;;;5075726;28;20035;-78
2021/05/10 15:29:32;;;;;;;9.32;4.38;;;819.30;972.80;;;;;;5075717;28;20426;-79
2021/05/10 15:31:58;;;;;;;7.65;4.25;;;819.30;972.80;;;;;;5075349;28;20122;-78
2021/05/10 15:34:24;;;;;;;7.53;4.40;;;819.20;998.40;;;;;;5075564;28;20040;-80
2021/05/10 15:36:51;;;;;;;15.88;7.35;;;819.20;998.40;;;;;;5076163;28;20035;-79
2021/05/10 15:39:18;;;;;;;11.23;6.07;;;794.40;998.40;;;;;;5075801;28;20027;-79
2021/05/10 15:41:43;;;;;;;14.45;7.28;;;794.30;998.40;;;;;;5093782;28;20032;-79
2021/05/10 15:44:09;;;;;;;15.52;9.93;;;794.20;1024.00;;;;;;5075940;28;20032;-79
2021/05/10 15:46:35;;;;;;;19.90;9.70;;;794.20;1049.60;;;;;;5094348;28;20051;-79
2021/05/10 15:49:01;;;;;;;9.25;4.68;;;794.10;1024.00;;;;;;5074405;28;20457;-79
2021/05/10 15:51:27;;;;;;;18.52;6.18;;;794.00;1024.00;;;;;;5056412;28;20025;-79
2021/05/10 15:53:52;;;;;;;15.77;5.80;;;793.80;1049.60;;;;;;5055448;28;20439;-80
2021/05/10 15:56:19;;;;;;;12.90;6.28;;;793.60;1049.60;;;;;;5055126;28;20032;-81